createdAt,value
2018-11-04T00:00:56.632Z,75.74
2018-11-04T00:03:25.883Z,76.07
2018-11-04T00:05:54.554Z,75.81
2018-11-04T00:08:23.381Z,75.72
2018-11-04T00:10:52.091Z,75.76
2018-11-04T00:13:21.181Z,75.50
2018-11-04T00:15:49.937Z,75.75
2018-11-04T00:18:18.767Z,75.96
2018-11-04T00:20:47.434Z,76.12
2018-11-04T00:23:16.107Z,75.49
2018-11-04T00:25:44.781Z,75.84
2018-11-04T00:28:13.470Z,75.60
2018-11-04T00:30:42.343Z,75.66
2018-11-04T00:33:11.094Z,75.89
2018-11-04T00:35:39.821Z,75.76
2018-11-04T00:38:08.581Z,76.01
2018-11-04T00:40:37.275Z,76.39
2018-11-04T00:43:06.482Z,76.34
2018-11-04T00:45:35.175Z,76.46
2018-11-04T00:48:04.007Z,76.44
2018-11-04T00:50:32.770Z,76.46
2018-11-04T00:53:01.486Z,76.66
2018-11-04T00:55:30.203Z,76.26
2018-11-04T00:57:58.878Z,76.13
2018-11-04T01:00:27.639Z,76.20
2018-11-04T01:02:56.526Z,75.81
2018-11-04T01:05:25.262Z,75.76
2018-11-04T01:07:53.922Z,75.85
2018-11-04T01:10:22.662Z,76.24
2018-11-04T01:12:51.322Z,76.33
2018-11-04T01:15:20.194Z,76.26
2018-11-04T01:17:48.908Z,75.87
2018-11-04T01:20:18.159Z,76.17
2018-11-04T01:22:47.128Z,76.31
2018-11-04T01:25:15.904Z,76.51
2018-11-04T01:27:44.749Z,76.22
2018-11-04T01:30:15.112Z,76.19
2018-11-04T01:32:44.273Z,76.44
2018-11-04T01:35:13.126Z,76.71
2018-11-04T01:37:41.777Z,76.29
2018-11-04T01:40:10.903Z,76.39
2018-11-04T01:42:39.889Z,76.25
2018-11-04T01:45:10.138Z,76.66
2018-11-04T01:47:38.781Z,76.27
2018-11-04T01:50:10.924Z,76.21
2018-11-04T01:52:39.564Z,76.03
2018-11-04T01:55:08.988Z,76.91
2018-11-04T01:57:37.734Z,76.80
2018-11-04T02:00:10.457Z,76.76
2018-11-04T02:02:39.130Z,76.84
2018-11-04T02:05:08.550Z,76.70
2018-11-04T02:07:37.216Z,76.68
2018-11-04T02:10:07.229Z,76.97
2018-11-04T02:12:35.913Z,77.07
2018-11-04T02:15:04.970Z,76.83
2018-11-04T02:17:33.740Z,77.05
2018-11-04T02:20:02.500Z,77.20
2018-11-04T02:22:31.192Z,77.47
2018-11-04T02:24:59.998Z,77.10
2018-11-04T02:27:28.634Z,77.29
2018-11-04T02:29:57.445Z,76.78
2018-11-04T02:32:26.178Z,77.25
2018-11-04T02:34:54.914Z,77.51
2018-11-04T02:37:23.682Z,77.97
2018-11-04T02:39:52.457Z,77.66
2018-11-04T02:42:21.301Z,77.58
2018-11-04T02:44:50.066Z,78.00
2018-11-04T02:47:18.702Z,78.08
2018-11-04T02:49:47.447Z,78.18
2018-11-04T02:52:16.110Z,78.02
2018-11-04T02:54:44.927Z,77.85
2018-11-04T02:57:13.709Z,78.01
2018-11-04T02:59:42.401Z,77.92
2018-11-04T03:02:11.368Z,78.28
2018-11-04T03:04:40.011Z,78.02
2018-11-04T03:07:08.746Z,78.23
2018-11-04T03:09:37.455Z,78.30
2018-11-04T03:12:06.445Z,78.12
2018-11-04T03:14:35.221Z,77.99
2018-11-04T03:17:04.125Z,77.97
2018-11-04T03:19:32.930Z,78.43
2018-11-04T03:22:01.574Z,78.47
2018-11-04T03:24:30.827Z,78.25
2018-11-04T03:26:59.687Z,78.28
2018-11-04T03:29:28.442Z,79.12
2018-11-04T03:31:57.175Z,78.80
2018-11-04T03:34:25.941Z,79.24
2018-11-04T03:36:54.631Z,79.06
2018-11-04T03:39:23.493Z,78.98
2018-11-04T03:41:52.248Z,79.15
2018-11-04T03:44:20.997Z,79.04
2018-11-04T03:46:49.759Z,79.37
2018-11-04T03:49:18.421Z,79.42
2018-11-04T03:51:47.164Z,79.66
2018-11-04T03:54:15.824Z,79.16
2018-11-04T03:56:44.570Z,79.08
2018-11-04T03:59:13.571Z,78.93
2018-11-04T04:01:42.271Z,79.13
2018-11-04T04:04:11.006Z,79.27
2018-11-04T04:06:39.646Z,79.21
2018-11-04T04:09:09.524Z,79.14
2018-11-04T04:11:38.278Z,79.32
2018-11-04T04:14:07.518Z,78.92
2018-11-04T04:16:36.398Z,78.94
2018-11-04T04:19:05.372Z,78.51
2018-11-04T04:21:34.006Z,78.53
2018-11-04T04:24:02.821Z,78.37
2018-11-04T04:26:31.518Z,78.67
2018-11-04T04:29:00.217Z,78.52
2018-11-04T04:31:29.254Z,78.36
2018-11-04T04:33:57.970Z,78.21
2018-11-04T04:36:26.671Z,78.19
2018-11-04T04:38:55.337Z,78.24
2018-11-04T04:41:24.934Z,78.81
2018-11-04T04:43:53.781Z,78.45
2018-11-04T04:46:22.442Z,78.34
2018-11-04T04:48:51.305Z,78.47
2018-11-04T04:51:19.957Z,77.79
2018-11-04T04:53:48.597Z,78.49
2018-11-04T04:56:17.248Z,78.66
2018-11-04T04:58:45.878Z,78.05
2018-11-04T05:01:14.530Z,78.01
2018-11-04T05:03:43.325Z,77.65
2018-11-04T05:06:11.975Z,77.68
2018-11-04T05:08:40.681Z,77.56
2018-11-04T05:11:09.426Z,77.41
2018-11-04T05:13:38.121Z,77.91
2018-11-04T05:16:06.984Z,77.43
2018-11-04T05:18:35.610Z,77.67
2018-11-04T05:21:04.362Z,77.65
2018-11-04T05:23:33.038Z,77.71
2018-11-04T05:26:01.790Z,78.03
2018-11-04T05:28:30.478Z,78.22
2018-11-04T05:30:59.166Z,78.04
2018-11-04T05:33:27.883Z,78.40
2018-11-04T05:35:56.597Z,78.36
2018-11-04T05:38:25.283Z,78.01
2018-11-04T05:40:53.950Z,77.90
2018-11-04T05:43:22.623Z,77.72
2018-11-04T05:45:51.348Z,78.13
2018-11-04T05:48:20.040Z,78.14
2018-11-04T05:50:48.833Z,78.33
2018-11-04T05:53:17.464Z,78.24
2018-11-04T05:55:46.166Z,78.32
2018-11-04T05:58:14.797Z,78.52
2018-11-04T06:00:43.674Z,78.52
2018-11-04T06:03:12.369Z,77.94
2018-11-04T06:05:41.073Z,78.21
2018-11-04T06:08:09.786Z,77.65
2018-11-04T06:10:38.557Z,77.52
2018-11-04T06:13:07.353Z,77.55
2018-11-04T06:15:36.224Z,77.91
2018-11-04T06:18:05.111Z,77.54
2018-11-04T06:20:33.922Z,78.05
2018-11-04T06:23:02.674Z,77.87
2018-11-04T06:25:31.350Z,77.45
2018-11-04T06:28:00.023Z,77.26
2018-11-04T06:30:28.739Z,77.21
2018-11-04T06:32:57.481Z,77.37
2018-11-04T06:35:26.121Z,77.34
2018-11-04T06:37:54.925Z,77.56
2018-11-04T06:40:23.712Z,77.51
2018-11-04T06:42:52.379Z,78.05
2018-11-04T06:45:21.054Z,78.59
2018-11-04T06:47:49.734Z,78.34
2018-11-04T06:50:18.523Z,77.85
2018-11-04T06:52:47.165Z,77.52
2018-11-04T06:55:15.934Z,78.28
2018-11-04T06:57:44.720Z,78.52
2018-11-04T07:00:13.418Z,78.69
2018-11-04T07:02:42.048Z,78.48
2018-11-04T07:05:10.710Z,78.03
2018-11-04T07:07:39.338Z,77.90
2018-11-04T07:10:09.194Z,78.07
2018-11-04T07:12:37.939Z,77.72
2018-11-04T07:15:06.951Z,77.66
2018-11-04T07:17:35.841Z,77.39
2018-11-04T07:20:04.904Z,77.45
2018-11-04T07:22:33.605Z,77.56
2018-11-04T07:25:02.363Z,77.47
2018-11-04T07:27:31.185Z,77.39
2018-11-04T07:29:59.922Z,77.22
2018-11-04T07:32:28.561Z,77.31
2018-11-04T07:34:57.289Z,77.42
2018-11-04T07:37:26.064Z,77.26
2018-11-04T07:39:54.758Z,76.53
2018-11-04T07:42:23.639Z,76.93
2018-11-04T07:44:52.450Z,76.92
2018-11-04T07:47:21.081Z,76.89
2018-11-04T07:49:49.729Z,76.38
2018-11-04T07:52:18.390Z,76.41
2018-11-04T07:54:47.097Z,76.49
2018-11-04T07:57:15.841Z,76.59
2018-11-04T07:59:44.734Z,76.51
2018-11-04T08:02:13.578Z,76.83
2018-11-04T08:04:42.241Z,76.55
2018-11-04T08:07:10.960Z,76.95
2018-11-04T08:09:39.621Z,76.70
2018-11-04T08:12:08.450Z,76.71
2018-11-04T08:14:37.258Z,76.66
2018-11-04T08:17:06.275Z,76.63
2018-11-04T08:19:35.027Z,76.48
2018-11-04T08:22:04.213Z,76.36
2018-11-04T08:24:32.868Z,77.11
2018-11-04T08:27:01.709Z,76.78
2018-11-04T08:29:30.664Z,77.03
2018-11-04T08:31:59.393Z,76.95
2018-11-04T08:34:28.166Z,76.32
2018-11-04T08:36:57.028Z,76.62
2018-11-04T08:39:25.950Z,76.65
2018-11-04T08:41:54.836Z,76.77
2018-11-04T08:44:23.486Z,76.51
2018-11-04T08:46:52.106Z,76.56
2018-11-04T08:49:20.842Z,76.42
2018-11-04T08:51:49.740Z,76.38
2018-11-04T08:54:18.399Z,76.35
2018-11-04T08:56:47.145Z,76.49
2018-11-04T08:59:15.946Z,76.28
2018-11-04T09:01:44.673Z,76.20
2018-11-04T09:04:13.509Z,75.82
2018-11-04T09:06:42.585Z,75.91
2018-11-04T09:09:11.277Z,75.78
2018-11-04T09:11:40.005Z,75.90
2018-11-04T09:14:08.984Z,75.90
2018-11-04T09:16:37.682Z,75.65
2018-11-04T09:19:06.430Z,76.03
2018-11-04T09:21:35.175Z,76.27
2018-11-04T09:24:03.949Z,75.76
2018-11-04T09:26:32.812Z,75.44
2018-11-04T09:29:01.630Z,75.61
2018-11-04T09:31:30.315Z,75.55
2018-11-04T09:33:59.102Z,75.15
2018-11-04T09:36:27.834Z,74.29
2018-11-04T09:38:56.600Z,74.95
2018-11-04T09:41:25.221Z,74.99
2018-11-04T09:43:53.915Z,74.49
2018-11-04T09:46:22.650Z,74.41
2018-11-04T09:48:51.333Z,74.00
2018-11-04T09:51:19.978Z,74.11
2018-11-04T09:53:49.098Z,74.15
2018-11-04T09:56:17.832Z,74.21
2018-11-04T09:58:46.502Z,74.01
2018-11-04T10:01:15.371Z,73.99
2018-11-04T10:03:44.060Z,74.09
2018-11-04T10:06:12.801Z,74.59
2018-11-04T10:08:41.487Z,74.89
2018-11-04T10:11:10.333Z,74.43
2018-11-04T10:13:39.140Z,74.82
2018-11-04T10:16:07.909Z,74.38
2018-11-04T10:18:36.584Z,73.99
2018-11-04T10:21:05.766Z,74.64
2018-11-04T10:23:34.079Z,74.12
2018-11-04T10:26:02.716Z,73.96
2018-11-04T10:28:31.602Z,73.74
2018-11-04T10:31:00.405Z,73.56
2018-11-04T10:33:29.188Z,73.18
2018-11-04T10:35:57.842Z,73.43
2018-11-04T10:38:26.570Z,73.91
2018-11-04T10:40:55.213Z,73.89
2018-11-04T10:43:24.053Z,73.80
2018-11-04T10:45:52.916Z,74.13
2018-11-04T10:48:21.717Z,73.55
2018-11-04T10:50:50.514Z,73.87
2018-11-04T10:53:19.246Z,73.61
2018-11-04T10:55:48.050Z,73.09
2018-11-04T10:58:16.829Z,73.24
2018-11-04T11:00:50.817Z,73.02
2018-11-04T11:03:19.587Z,73.11
2018-11-04T11:05:48.306Z,73.29
2018-11-04T11:08:16.969Z,72.47
2018-11-04T11:10:45.744Z,72.70
2018-11-04T11:13:14.533Z,73.03
2018-11-04T11:15:43.242Z,73.54
2018-11-04T11:18:11.980Z,73.45
2018-11-04T11:20:40.769Z,72.95
2018-11-04T11:23:09.499Z,72.91
2018-11-04T11:25:38.127Z,72.91
2018-11-04T11:28:06.881Z,72.10
2018-11-04T11:30:35.639Z,71.96
2018-11-04T11:33:04.697Z,71.72
2018-11-04T11:35:33.338Z,71.64
2018-11-04T11:38:02.280Z,71.99
2018-11-04T11:40:30.966Z,72.08
2018-11-04T11:42:59.827Z,71.30
2018-11-04T11:45:28.498Z,71.44
2018-11-04T11:47:57.269Z,71.51
2018-11-04T11:50:25.929Z,71.44
2018-11-04T11:52:54.649Z,72.08
2018-11-04T11:55:23.286Z,71.96
2018-11-04T11:57:52.021Z,71.65
2018-11-04T12:00:20.755Z,72.02
2018-11-04T12:02:49.930Z,72.05
2018-11-04T12:05:18.611Z,71.70
2018-11-04T12:07:47.394Z,72.11
2018-11-04T12:10:16.155Z,71.85
2018-11-04T12:12:44.806Z,72.18
2018-11-04T12:15:14.162Z,71.88
2018-11-04T12:17:42.968Z,71.64
2018-11-04T12:20:12.581Z,72.44
2018-11-04T12:22:41.561Z,72.29
2018-11-04T12:25:11.546Z,72.51
2018-11-04T12:27:40.406Z,72.42
2018-11-04T12:30:12.202Z,72.40
2018-11-04T12:32:41.228Z,72.16
2018-11-04T12:35:11.607Z,72.41
2018-11-04T12:37:40.638Z,72.10
2018-11-04T12:40:11.050Z,72.03
2018-11-04T12:42:39.945Z,71.97
2018-11-04T12:45:10.469Z,71.34
2018-11-04T12:47:39.225Z,71.38
2018-11-04T12:50:09.182Z,71.59
2018-11-04T12:52:38.244Z,71.30
2018-11-04T12:55:07.574Z,71.45
2018-11-04T12:57:36.593Z,71.99
2018-11-04T13:00:08.084Z,71.54
2018-11-04T13:02:36.743Z,71.55
2018-11-04T13:05:06.483Z,71.02
2018-11-04T13:07:35.334Z,70.92
2018-11-04T13:10:04.778Z,70.86
2018-11-04T13:12:33.614Z,71.11
2018-11-04T13:15:02.389Z,71.38
2018-11-04T13:17:31.069Z,71.03
2018-11-04T13:19:59.747Z,71.26
2018-11-04T13:22:28.514Z,71.49
2018-11-04T13:24:57.183Z,71.36
2018-11-04T13:27:26.165Z,71.55
2018-11-04T13:29:54.894Z,71.22
2018-11-04T13:32:23.678Z,71.60
2018-11-04T13:34:52.338Z,71.38
2018-11-04T13:37:21.120Z,71.10
2018-11-04T13:39:49.817Z,71.38
2018-11-04T13:42:18.901Z,71.67
2018-11-04T13:44:47.865Z,72.03
2018-11-04T13:47:16.745Z,72.46
2018-11-04T13:49:45.461Z,71.72
2018-11-04T13:52:14.195Z,71.76
2018-11-04T13:54:42.895Z,72.47
2018-11-04T13:57:11.667Z,72.65
2018-11-04T13:59:40.444Z,72.66
2018-11-04T14:02:09.130Z,72.56
2018-11-04T14:04:37.829Z,72.95
2018-11-04T14:07:06.586Z,72.21
2018-11-04T14:09:35.285Z,72.24
2018-11-04T14:12:04.141Z,71.93
2018-11-04T14:14:32.827Z,72.14
2018-11-04T14:17:01.631Z,72.44
2018-11-04T14:19:30.277Z,72.48
2018-11-04T14:21:58.977Z,72.72
2018-11-04T14:24:27.846Z,72.88
2018-11-04T14:26:56.895Z,74.19
2018-11-04T14:29:25.669Z,73.46
2018-11-04T14:31:54.384Z,73.55
2018-11-04T14:34:23.149Z,73.34
2018-11-04T14:36:51.818Z,73.28
2018-11-04T14:39:20.589Z,73.21
2018-11-04T14:41:49.471Z,73.15
2018-11-04T14:44:18.125Z,72.17
2018-11-04T14:46:46.895Z,72.29
2018-11-04T14:49:15.585Z,72.87
2018-11-04T14:51:44.358Z,71.93
2018-11-04T14:54:13.277Z,72.52
2018-11-04T14:56:42.434Z,73.27
2018-11-04T14:59:11.131Z,73.31
2018-11-04T15:01:40.006Z,73.64
2018-11-04T15:04:08.622Z,73.43
2018-11-04T15:06:37.382Z,72.97
2018-11-04T15:09:07.934Z,73.36
2018-11-04T15:11:36.706Z,73.33
2018-11-04T15:14:06.018Z,73.01
2018-11-04T15:16:34.760Z,73.57
2018-11-04T15:19:03.508Z,73.68
2018-11-04T15:21:32.328Z,73.45
2018-11-04T15:24:00.977Z,73.31
2018-11-04T15:26:29.709Z,73.07
2018-11-04T15:29:00.148Z,73.24
2018-11-04T15:31:28.826Z,73.18
2018-11-04T15:33:57.533Z,73.62
2018-11-04T15:36:26.320Z,73.45
2018-11-04T15:38:55.209Z,73.39
2018-11-04T15:41:23.878Z,73.89
2018-11-04T15:43:52.547Z,73.52
2018-11-04T15:46:21.393Z,73.73
2018-11-04T15:48:50.057Z,74.63
2018-11-04T15:51:18.778Z,74.61
2018-11-04T15:53:47.423Z,74.47
2018-11-04T15:56:16.582Z,74.16
2018-11-04T15:58:45.341Z,74.13
2018-11-04T16:01:14.123Z,74.26
2018-11-04T16:03:42.827Z,74.04
2018-11-04T16:06:11.508Z,73.79
2018-11-04T16:08:40.158Z,74.33
2018-11-04T16:11:08.891Z,74.16
2018-11-04T16:13:37.678Z,73.95
2018-11-04T16:16:06.949Z,73.81
2018-11-04T16:18:35.761Z,73.95
2018-11-04T16:21:04.469Z,73.90
2018-11-04T16:23:33.129Z,74.39
2018-11-04T16:26:02.082Z,73.91
2018-11-04T16:28:30.809Z,73.97
2018-11-04T16:30:59.623Z,73.99
2018-11-04T16:33:28.469Z,73.73
2018-11-04T16:35:57.156Z,73.58
2018-11-04T16:38:25.865Z,73.76
2018-11-04T16:40:54.565Z,73.93
2018-11-04T16:43:24.262Z,73.95
2018-11-04T16:45:52.946Z,73.76
2018-11-04T16:48:21.597Z,73.79
2018-11-04T16:50:50.278Z,74.42
2018-11-04T16:53:19.057Z,74.34
2018-11-04T16:55:47.771Z,74.74
2018-11-04T16:58:16.441Z,74.34
2018-11-04T17:00:45.122Z,74.33
2018-11-04T17:03:13.854Z,74.13
2018-11-04T17:05:43.017Z,74.12
2018-11-04T17:08:11.717Z,74.61
2018-11-04T17:10:40.429Z,74.56
2018-11-04T17:13:09.322Z,74.63
2018-11-04T17:15:38.106Z,74.64
2018-11-04T17:18:06.927Z,74.62
2018-11-04T17:20:35.718Z,74.11
2018-11-04T17:23:04.421Z,74.42
2018-11-04T17:25:33.294Z,74.82
2018-11-04T17:28:02.010Z,74.62
2018-11-04T17:30:30.887Z,74.38
2018-11-04T17:32:59.602Z,74.66
2018-11-04T17:35:28.783Z,74.94
2018-11-04T17:37:57.529Z,74.65
2018-11-04T17:40:26.218Z,74.56
2018-11-04T17:42:55.047Z,73.99
2018-11-04T17:45:23.863Z,74.58
2018-11-04T17:47:52.549Z,74.49
2018-11-04T17:50:21.275Z,74.97
2018-11-04T17:52:50.021Z,75.04
2018-11-04T17:55:18.775Z,74.93
2018-11-04T17:57:47.454Z,74.81
2018-11-04T18:00:17.421Z,75.25
2018-11-04T18:02:46.455Z,74.82
2018-11-04T18:05:15.455Z,74.67
2018-11-04T18:07:44.455Z,74.94
2018-11-04T18:10:14.298Z,74.57
2018-11-04T18:12:43.329Z,74.96
2018-11-04T18:15:12.853Z,75.30
2018-11-04T18:17:41.526Z,75.30
2018-11-04T18:20:11.183Z,75.20
2018-11-04T18:22:40.086Z,75.53
2018-11-04T18:25:10.087Z,75.60
2018-11-04T18:27:38.784Z,75.62
2018-11-04T18:30:10.130Z,75.80
2018-11-04T18:32:38.801Z,75.75
2018-11-04T18:35:07.882Z,75.89
2018-11-04T18:37:36.551Z,76.12
2018-11-04T18:40:06.742Z,75.87
2018-11-04T18:42:35.512Z,75.87
2018-11-04T18:45:04.356Z,75.69
2018-11-04T18:47:33.048Z,75.86
2018-11-04T18:50:01.737Z,76.15
2018-11-04T18:52:30.684Z,76.19
2018-11-04T18:54:59.415Z,76.00
2018-11-04T18:57:28.555Z,76.37
2018-11-04T18:59:57.345Z,76.34
2018-11-04T19:02:26.088Z,76.38
2018-11-04T19:04:54.895Z,76.56
2018-11-04T19:07:23.656Z,76.72
2018-11-04T19:09:52.413Z,76.65
2018-11-04T19:12:21.113Z,76.58
2018-11-04T19:14:49.968Z,76.67
2018-11-04T19:17:18.645Z,75.94
2018-11-04T19:19:47.384Z,76.48
2018-11-04T19:22:16.117Z,75.99
2018-11-04T19:24:44.929Z,75.89
2018-11-04T19:27:13.670Z,75.91
2018-11-04T19:29:42.453Z,75.90
2018-11-04T19:32:11.298Z,75.99
2018-11-04T19:34:40.033Z,76.19
2018-11-04T19:37:08.930Z,75.95
2018-11-04T19:39:37.686Z,76.52
2018-11-04T19:42:06.534Z,75.92
2018-11-04T19:44:35.488Z,76.28
2018-11-04T19:47:04.346Z,76.99
2018-11-04T19:49:33.452Z,76.69
2018-11-04T19:52:02.191Z,77.31
2018-11-04T19:54:31.149Z,77.03
2018-11-04T19:56:59.991Z,77.13
2018-11-04T19:59:28.993Z,77.09
2018-11-04T20:02:04.359Z,76.79
2018-11-04T20:04:33.086Z,77.20
2018-11-04T20:07:01.900Z,77.43
2018-11-04T20:09:31.030Z,77.25
2018-11-04T20:11:59.711Z,77.21
2018-11-04T20:14:28.565Z,77.23
2018-11-04T20:16:57.231Z,77.20
2018-11-04T20:19:31.277Z,77.26
2018-11-04T20:21:59.829Z,77.37
2018-11-04T20:24:33.781Z,77.18
2018-11-04T20:27:02.689Z,77.07
2018-11-04T20:29:31.744Z,77.53
2018-11-04T20:32:05.903Z,77.60
2018-11-04T20:34:34.894Z,77.31
2018-11-04T20:37:03.657Z,77.36
2018-11-04T20:39:37.821Z,77.58
2018-11-04T20:42:06.733Z,77.34
2018-11-04T20:44:39.886Z,77.40
2018-11-04T20:47:08.671Z,77.35
2018-11-04T20:49:43.144Z,77.35
2018-11-04T20:52:11.938Z,77.46
2018-11-04T20:54:40.794Z,77.23
2018-11-04T20:57:14.709Z,77.45
2018-11-04T20:59:43.578Z,77.21
2018-11-04T21:02:12.507Z,76.85
2018-11-04T21:04:41.132Z,77.35
2018-11-04T21:07:10.189Z,77.66
2018-11-04T21:09:39.454Z,77.70
2018-11-04T21:12:08.162Z,77.73
2018-11-04T21:14:37.651Z,77.87
2018-11-04T21:17:06.690Z,77.76
2018-11-04T21:19:35.549Z,77.48
2018-11-04T21:22:04.506Z,77.56
2018-11-04T21:24:33.325Z,77.92
2018-11-04T21:27:02.083Z,78.07
2018-11-04T21:29:31.171Z,78.07
2018-11-04T21:31:59.549Z,77.82
2018-11-04T21:34:28.290Z,77.93
2018-11-04T21:36:57.060Z,77.69
2018-11-04T21:39:25.752Z,77.84
2018-11-04T21:41:54.478Z,77.97
2018-11-04T21:44:23.417Z,77.74
2018-11-04T21:46:52.149Z,78.09
2018-11-04T21:49:20.977Z,78.24
2018-11-04T21:51:49.722Z,78.48
2018-11-04T21:54:18.399Z,78.58
2018-11-04T21:56:47.202Z,78.24
2018-11-04T21:59:15.922Z,78.16
2018-11-04T22:01:44.584Z,77.98
2018-11-04T22:04:13.700Z,78.29
2018-11-04T22:06:42.556Z,78.57
2018-11-04T22:09:11.713Z,78.50
2018-11-04T22:11:40.485Z,78.00
2018-11-04T22:14:09.205Z,78.14
2018-11-04T22:16:38.078Z,77.72
2018-11-04T22:19:06.919Z,78.14
2018-11-04T22:21:35.930Z,78.37
2018-11-04T22:24:04.837Z,78.08
2018-11-04T22:26:33.474Z,78.00
2018-11-04T22:29:02.229Z,77.95
2018-11-04T22:31:30.976Z,78.10
2018-11-04T22:33:59.665Z,78.46
2018-11-04T22:36:28.600Z,78.34
2018-11-04T22:38:58.149Z,78.67
2018-11-04T22:41:26.809Z,78.06
2018-11-04T22:43:55.773Z,77.95
2018-11-04T22:46:24.518Z,78.03
2018-11-04T22:48:53.206Z,77.89
2018-11-04T22:51:21.912Z,78.04
2018-11-04T22:53:50.725Z,78.33
2018-11-04T22:56:19.385Z,78.28
2018-11-04T22:58:48.384Z,78.56
2018-11-04T23:01:17.216Z,78.83
2018-11-04T23:03:45.868Z,79.16
2018-11-04T23:06:14.604Z,79.09
2018-11-04T23:08:43.404Z,79.24
2018-11-04T23:11:18.730Z,79.20
2018-11-04T23:13:47.530Z,79.47
2018-11-04T23:16:16.247Z,79.16
2018-11-04T23:18:45.034Z,79.24
2018-11-04T23:21:13.647Z,78.83
2018-11-04T23:23:42.357Z,79.17
2018-11-04T23:26:11.089Z,79.09
2018-11-04T23:28:39.847Z,79.01
2018-11-04T23:31:08.586Z,79.39
2018-11-04T23:33:37.342Z,79.15
2018-11-04T23:36:06.290Z,79.01
2018-11-04T23:38:35.038Z,78.91
2018-11-04T23:41:03.736Z,78.87
2018-11-04T23:43:32.413Z,79.14
2018-11-04T23:46:01.198Z,79.41
2018-11-04T23:48:29.998Z,79.43
2018-11-04T23:50:58.778Z,79.26
2018-11-04T23:53:27.570Z,79.17
2018-11-04T23:55:56.219Z,78.83
2018-11-04T23:58:24.866Z,79.10
